createdAt,value
2017-01-31T00:00:07.727Z,100.00
2017-01-31T00:00:29.440Z,100.00
2017-01-31T00:00:51.151Z,100.00
2017-01-31T00:01:12.849Z,100.00
2017-01-31T00:01:34.567Z,100.00
2017-01-31T00:01:56.301Z,100.00
2017-01-31T00:02:22.787Z,100.00
2017-01-31T00:02:44.488Z,100.00
2017-01-31T00:03:15.760Z,100.00
2017-01-31T00:03:37.494Z,100.00
2017-01-31T00:04:03.952Z,100.00
2017-01-31T00:04:25.692Z,100.00
2017-01-31T00:04:52.163Z,100.00
2017-01-31T00:05:13.866Z,100.00
2017-01-31T00:05:40.369Z,100.00
2017-01-31T00:06:02.147Z,100.00
2017-01-31T00:06:23.849Z,100.00
2017-01-31T00:06:50.343Z,100.00
2017-01-31T00:07:12.074Z,100.00
2017-01-31T00:08:15.174Z,100.00
2017-01-31T00:08:36.891Z,100.00
2017-01-31T00:09:03.395Z,100.00
2017-01-31T00:09:25.136Z,100.00
2017-01-31T00:09:46.837Z,100.00
2017-01-31T00:10:18.089Z,100.00
2017-01-31T00:10:39.798Z,100.00
2017-01-31T00:11:06.291Z,100.00
2017-01-31T00:11:27.984Z,100.00
2017-01-31T00:11:49.766Z,100.00
2017-01-31T00:12:16.234Z,100.00
2017-01-31T00:12:37.976Z,100.00
2017-01-31T00:13:41.073Z,100.00
2017-01-31T00:14:02.806Z,100.00
2017-01-31T00:14:34.085Z,100.00
2017-01-31T00:14:55.798Z,100.00
2017-01-31T00:15:22.290Z,100.00
2017-01-31T00:15:44.004Z,100.00
2017-01-31T00:16:42.304Z,100.00
2017-01-31T00:17:04.031Z,100.00
2017-01-31T00:17:30.511Z,100.00
2017-01-31T00:17:52.225Z,100.00
2017-01-31T00:18:13.937Z,100.00
2017-01-31T00:18:40.413Z,100.00
2017-01-31T00:19:02.116Z,100.00
2017-01-31T00:19:23.810Z,100.00
2017-01-31T00:19:55.059Z,100.00
2017-01-31T00:20:16.770Z,100.00
2017-01-31T00:20:38.476Z,100.00
2017-01-31T00:21:04.958Z,100.00
2017-01-31T00:21:26.656Z,100.00
2017-01-31T00:21:53.127Z,100.00
2017-01-31T00:22:14.851Z,100.00
2017-01-31T00:22:46.099Z,100.00
2017-01-31T00:23:07.793Z,100.00
2017-01-31T00:23:34.290Z,100.00
2017-01-31T00:23:55.983Z,100.00
2017-01-31T00:24:17.692Z,100.00
2017-01-31T00:24:39.401Z,100.00
2017-01-31T00:25:01.100Z,100.00
2017-01-31T00:25:27.587Z,100.00
2017-01-31T00:25:49.287Z,100.00
2017-01-31T00:26:10.979Z,100.00
2017-01-31T00:26:37.458Z,100.00
2017-01-31T00:26:59.205Z,100.00
2017-01-31T00:27:25.685Z,100.00
2017-01-31T00:27:47.381Z,100.00
2017-01-31T00:28:09.116Z,100.00
2017-01-31T00:28:35.598Z,100.00
2017-01-31T00:28:57.299Z,100.00
2017-01-31T00:29:19.005Z,100.00
2017-01-31T00:29:40.713Z,100.00
2017-01-31T00:30:02.397Z,100.00
2017-01-31T00:30:28.876Z,100.00
2017-01-31T00:30:50.588Z,100.00
2017-01-31T00:31:12.290Z,100.00
2017-01-31T00:31:38.770Z,100.00
2017-01-31T00:32:00.461Z,100.00
2017-01-31T00:32:22.187Z,100.00
2017-01-31T00:33:25.247Z,100.00
2017-01-31T00:33:46.942Z,100.00
2017-01-31T00:34:08.705Z,100.00
2017-01-31T00:34:30.400Z,100.00
2017-01-31T00:34:52.108Z,100.00
2017-01-31T00:35:18.589Z,100.00
2017-01-31T00:35:40.288Z,100.00
2017-01-31T00:36:01.986Z,100.00
2017-01-31T00:36:23.700Z,100.00
2017-01-31T00:36:45.391Z,100.00
2017-01-31T00:37:16.654Z,100.00
2017-01-31T00:37:38.356Z,100.00
2017-01-31T00:38:09.618Z,100.00
2017-01-31T00:38:31.324Z,100.00
2017-01-31T00:38:57.803Z,100.00
2017-01-31T00:39:19.495Z,100.00
2017-01-31T00:39:41.199Z,100.00
2017-01-31T00:40:02.899Z,100.00
2017-01-31T00:40:24.603Z,100.00
2017-01-31T00:40:46.315Z,100.00
2017-01-31T00:41:12.784Z,100.00
2017-01-31T00:41:34.496Z,100.00
2017-01-31T00:42:05.741Z,100.00
2017-01-31T00:42:27.448Z,100.00
2017-01-31T00:42:53.927Z,100.00
2017-01-31T00:43:15.648Z,100.00
2017-01-31T00:43:37.378Z,100.00
2017-01-31T00:44:03.833Z,100.00
2017-01-31T00:44:25.532Z,100.00
2017-01-31T00:44:52.018Z,100.00
2017-01-31T00:45:13.717Z,100.00
2017-01-31T00:45:35.424Z,100.00
2017-01-31T00:46:01.907Z,100.00
2017-01-31T00:46:23.609Z,100.00
2017-01-31T00:46:50.092Z,100.00
2017-01-31T00:47:11.800Z,100.00
2017-01-31T00:47:38.292Z,100.00
2017-01-31T00:47:59.987Z,100.00
2017-01-31T00:48:26.468Z,100.00
2017-01-31T00:48:48.169Z,100.00
2017-01-31T00:49:09.873Z,100.00
2017-01-31T00:49:31.578Z,100.00
2017-01-31T00:49:53.272Z,100.00
2017-01-31T00:50:56.333Z,100.00
2017-01-31T00:51:18.042Z,100.00
2017-01-31T00:51:39.743Z,100.00
2017-01-31T00:52:06.225Z,100.00
2017-01-31T00:52:27.925Z,100.00
2017-01-31T00:52:49.619Z,100.00
2017-01-31T00:53:16.098Z,100.00
2017-01-31T00:53:37.829Z,100.00
2017-01-31T00:54:04.322Z,100.00
2017-01-31T00:54:26.018Z,100.00
2017-01-31T00:54:47.725Z,100.00
2017-01-31T00:55:09.441Z,100.00
2017-01-31T00:55:31.135Z,100.00
2017-01-31T00:55:57.604Z,100.00
2017-01-31T00:56:19.300Z,100.00
2017-01-31T00:56:45.781Z,100.00
2017-01-31T00:57:07.487Z,100.00
2017-01-31T00:57:33.954Z,100.00
2017-01-31T00:57:55.672Z,100.00
2017-01-31T00:58:17.388Z,100.00
2017-01-31T00:58:43.886Z,100.00
2017-01-31T00:59:05.587Z,100.00
2017-01-31T00:59:36.837Z,100.00
2017-01-31T00:59:58.537Z,100.00
2017-01-31T01:00:29.792Z,100.00
2017-01-31T01:00:51.493Z,100.00
2017-01-31T01:01:13.201Z,100.00
2017-01-31T01:01:39.703Z,100.00
2017-01-31T01:02:01.415Z,100.00
2017-01-31T01:02:27.882Z,100.00
2017-01-31T01:02:49.574Z,100.00
2017-01-31T01:03:16.051Z,100.00
2017-01-31T01:03:37.748Z,100.00
2017-01-31T01:04:04.223Z,100.00
2017-01-31T01:04:25.936Z,100.00
2017-01-31T01:04:52.411Z,100.00
2017-01-31T01:05:14.120Z,100.00
2017-01-31T01:05:40.598Z,100.00
2017-01-31T01:06:07.073Z,100.00
2017-01-31T01:06:28.790Z,100.00
2017-01-31T01:06:50.496Z,100.00
2017-01-31T01:07:17.087Z,100.00
2017-01-31T01:07:38.981Z,100.00
2017-01-31T01:08:10.244Z,100.00
2017-01-31T01:08:31.954Z,100.00
2017-01-31T01:08:58.457Z,100.00
2017-01-31T01:09:20.160Z,100.00
2017-01-31T01:09:46.637Z,100.00
2017-01-31T01:10:08.359Z,100.00
2017-01-31T01:10:30.054Z,100.00
2017-01-31T01:10:56.543Z,100.00
2017-01-31T01:11:18.283Z,100.00
2017-01-31T01:11:49.541Z,100.00
2017-01-31T01:12:11.241Z,100.00
2017-01-31T01:12:37.724Z,100.00
2017-01-31T01:12:59.425Z,100.00
2017-01-31T01:13:21.132Z,100.00
2017-01-31T01:14:24.226Z,100.00
2017-01-31T01:14:45.946Z,100.00
2017-01-31T01:15:58.002Z,100.00
2017-01-31T01:16:19.713Z,100.00
2017-01-31T01:16:50.986Z,100.00
2017-01-31T01:17:12.704Z,100.00
2017-01-31T01:17:43.964Z,100.00
2017-01-31T01:18:05.672Z,100.00
2017-01-31T01:18:36.926Z,100.00
2017-01-31T01:18:58.671Z,100.00
2017-01-31T01:19:29.991Z,100.00
2017-01-31T01:19:51.692Z,100.00
2017-01-31T01:20:18.181Z,100.00
2017-01-31T01:20:39.910Z,100.00
2017-01-31T01:21:11.171Z,100.00
2017-01-31T01:21:32.878Z,100.00
2017-01-31T01:21:59.368Z,100.00
2017-01-31T01:22:21.077Z,100.00
2017-01-31T01:22:47.571Z,100.00
2017-01-31T01:23:09.265Z,100.00
2017-01-31T01:24:12.372Z,100.00
2017-01-31T01:24:34.064Z,100.00
2017-01-31T01:24:55.776Z,100.00
2017-01-31T01:25:27.026Z,100.00
2017-01-31T01:25:48.734Z,100.00
2017-01-31T01:26:15.215Z,100.00
2017-01-31T01:26:36.933Z,100.00
2017-01-31T01:26:58.652Z,100.00
2017-01-31T01:27:29.954Z,100.00
2017-01-31T01:27:51.681Z,100.00
2017-01-31T01:28:22.937Z,100.00
2017-01-31T01:28:44.632Z,100.00
2017-01-31T01:29:15.907Z,100.00
2017-01-31T01:29:37.647Z,100.00
2017-01-31T01:30:08.956Z,100.00
2017-01-31T01:30:30.691Z,100.00
2017-01-31T01:30:57.202Z,100.00
2017-01-31T01:31:18.921Z,100.00
2017-01-31T01:31:40.624Z,100.00
2017-01-31T01:32:07.104Z,100.00
2017-01-31T01:32:33.594Z,100.00
2017-01-31T01:33:00.076Z,100.00
2017-01-31T01:33:21.790Z,100.00
2017-01-31T01:33:53.052Z,100.00
2017-01-31T01:34:14.751Z,100.00
2017-01-31T01:35:22.026Z,100.00
2017-01-31T01:35:43.752Z,100.00
2017-01-31T01:36:15.001Z,100.00
2017-01-31T01:36:36.702Z,100.00
2017-01-31T01:36:58.418Z,100.00
2017-01-31T01:37:20.126Z,100.00
2017-01-31T01:37:41.839Z,100.00
2017-01-31T01:38:03.559Z,100.00
2017-01-31T01:38:25.272Z,100.00
2017-01-31T01:38:47.000Z,100.00
2017-01-31T01:39:08.702Z,100.00
2017-01-31T01:40:01.653Z,100.00
2017-01-31T01:40:23.367Z,100.00
2017-01-31T01:40:49.845Z,100.00
2017-01-31T01:41:11.538Z,100.00
2017-01-31T01:41:33.241Z,100.00
2017-01-31T01:42:04.509Z,100.00
2017-01-31T01:42:26.251Z,100.00
2017-01-31T01:42:52.721Z,100.00
2017-01-31T01:43:14.417Z,100.00
2017-01-31T01:43:40.898Z,100.00
2017-01-31T01:44:03.647Z,100.00
2017-01-31T01:44:25.357Z,100.00
2017-01-31T01:44:51.835Z,100.00
2017-01-31T01:45:13.558Z,100.00
2017-01-31T01:45:35.305Z,100.00
2017-01-31T01:45:59.831Z,100.00
2017-01-31T01:46:26.328Z,100.00
2017-01-31T01:46:48.030Z,100.00
2017-01-31T01:47:09.725Z,100.00
2017-01-31T01:47:36.216Z,100.00
2017-01-31T01:47:57.952Z,100.00
2017-01-31T01:48:19.664Z,100.00
2017-01-31T01:48:41.367Z,100.00
2017-01-31T01:49:03.074Z,100.00
2017-01-31T01:49:29.573Z,100.00
2017-01-31T01:49:51.276Z,99.98
2017-01-31T01:50:22.530Z,99.92
2017-01-31T01:50:44.243Z,99.92
2017-01-31T01:51:05.977Z,99.91
2017-01-31T01:51:27.686Z,99.89
2017-01-31T01:51:49.396Z,99.88
2017-01-31T01:52:15.877Z,99.86
2017-01-31T01:52:37.589Z,99.85
2017-01-31T01:53:04.064Z,99.84
2017-01-31T01:53:25.773Z,99.82
2017-01-31T01:53:47.510Z,99.80
2017-01-31T01:54:13.979Z,99.79
2017-01-31T01:54:40.468Z,99.78
2017-01-31T01:55:07.059Z,99.75
2017-01-31T01:55:28.772Z,99.73
2017-01-31T01:56:00.038Z,99.74
2017-01-31T01:56:21.778Z,99.78
2017-01-31T01:56:48.259Z,99.80
2017-01-31T01:57:09.972Z,99.80
2017-01-31T01:57:41.231Z,99.82
2017-01-31T01:58:02.925Z,99.86
2017-01-31T01:58:24.643Z,99.87
2017-01-31T01:58:51.124Z,99.91
2017-01-31T01:59:12.832Z,99.93
2017-01-31T01:59:39.311Z,99.95
2017-01-31T02:00:01.027Z,99.96
2017-01-31T02:00:22.729Z,99.95
2017-01-31T02:01:25.856Z,99.96
2017-01-31T02:01:47.553Z,99.99
2017-01-31T02:02:14.043Z,100.00
2017-01-31T02:02:35.743Z,100.00
2017-01-31T02:02:57.460Z,100.00
2017-01-31T02:03:23.947Z,100.00
2017-01-31T02:03:45.657Z,100.00
2017-01-31T02:04:07.398Z,100.00
2017-01-31T02:04:29.086Z,100.00
2017-01-31T02:04:50.789Z,100.00
2017-01-31T02:05:12.587Z,100.00
2017-01-31T02:05:39.069Z,100.00
2017-01-31T02:06:00.784Z,100.00
2017-01-31T02:06:32.458Z,100.00
2017-01-31T02:06:54.157Z,100.00
2017-01-31T02:07:20.641Z,100.00
2017-01-31T02:07:42.397Z,100.00
2017-01-31T02:08:04.128Z,100.00
2017-01-31T02:08:25.862Z,100.00
2017-01-31T02:08:47.598Z,100.00
2017-01-31T02:09:09.485Z,100.00
2017-01-31T02:09:35.971Z,100.00
2017-01-31T02:09:57.774Z,100.00
2017-01-31T02:10:29.110Z,100.00
2017-01-31T02:10:50.827Z,100.00
2017-01-31T02:11:17.297Z,100.00
2017-01-31T02:11:39.058Z,100.00
2017-01-31T02:12:05.534Z,100.00
2017-01-31T02:12:27.300Z,100.00
2017-01-31T02:12:53.802Z,100.00
2017-01-31T02:13:15.510Z,100.00
2017-01-31T02:13:37.237Z,100.00
2017-01-31T02:13:58.947Z,100.00
2017-01-31T02:14:20.754Z,100.00
2017-01-31T02:14:47.228Z,100.00
2017-01-31T02:15:13.801Z,100.00
2017-01-31T02:15:35.531Z,100.00
2017-01-31T02:16:02.014Z,100.00
2017-01-31T02:16:23.722Z,100.00
2017-01-31T02:16:50.192Z,100.00
2017-01-31T02:17:11.942Z,100.00
2017-01-31T02:17:38.424Z,100.00
2017-01-31T02:18:03.067Z,100.00
2017-01-31T02:18:29.544Z,100.00
2017-01-31T02:18:51.254Z,100.00
2017-01-31T02:19:12.961Z,100.00
2017-01-31T02:19:39.440Z,100.00
2017-01-31T02:20:01.151Z,100.00
2017-01-31T02:20:32.409Z,100.00
2017-01-31T02:20:54.116Z,100.00
2017-01-31T02:22:06.168Z,100.00
2017-01-31T02:22:27.877Z,100.00
2017-01-31T02:22:54.400Z,100.00
2017-01-31T02:23:16.094Z,100.00
2017-01-31T02:23:42.593Z,100.00
2017-01-31T02:24:04.287Z,100.00
2017-01-31T02:24:35.552Z,100.00
2017-01-31T02:24:57.265Z,100.00
2017-01-31T02:25:23.760Z,100.00
2017-01-31T02:25:45.459Z,100.00
2017-01-31T02:26:07.170Z,100.00
2017-01-31T02:26:38.434Z,100.00
2017-01-31T02:27:00.182Z,100.00
2017-01-31T02:27:21.897Z,100.00
2017-01-31T02:27:53.156Z,100.00
2017-01-31T02:28:14.864Z,100.00
2017-01-31T02:28:36.581Z,100.00
2017-01-31T02:29:03.053Z,100.00
2017-01-31T02:29:24.771Z,100.00
2017-01-31T02:29:46.471Z,99.99
2017-01-31T02:30:17.722Z,99.96
2017-01-31T02:30:39.428Z,99.94
2017-01-31T02:31:01.120Z,99.88
2017-01-31T02:31:22.829Z,99.87
2017-01-31T02:31:44.527Z,99.87
2017-01-31T02:32:06.248Z,99.86
2017-01-31T02:32:27.956Z,99.85
2017-01-31T02:32:49.679Z,99.82
2017-01-31T02:33:20.942Z,99.76
2017-01-31T02:33:42.632Z,99.72
2017-01-31T02:34:13.890Z,99.68
2017-01-31T02:34:35.576Z,99.67
2017-01-31T02:35:02.054Z,99.67
2017-01-31T02:35:23.748Z,99.67
2017-01-31T02:35:45.459Z,99.67
2017-01-31T02:36:48.585Z,99.66
2017-01-31T02:37:10.332Z,99.63
2017-01-31T02:37:32.059Z,99.58
2017-01-31T02:38:03.314Z,99.59
2017-01-31T02:38:28.197Z,99.58
2017-01-31T02:38:59.463Z,99.60
2017-01-31T02:39:21.171Z,99.60
2017-01-31T02:39:47.659Z,99.56
2017-01-31T02:40:09.361Z,99.54
2017-01-31T02:40:40.607Z,99.50
2017-01-31T02:41:02.326Z,99.50
2017-01-31T02:42:14.386Z,99.47
2017-01-31T02:42:40.864Z,99.47
2017-01-31T02:43:12.115Z,99.46
2017-01-31T02:43:33.833Z,99.44
2017-01-31T02:43:55.536Z,99.45
2017-01-31T02:44:22.049Z,99.49
2017-01-31T02:44:43.789Z,99.49
2017-01-31T02:45:05.490Z,99.49
2017-01-31T02:46:08.578Z,99.38
2017-01-31T02:46:30.349Z,99.33
2017-01-31T02:46:56.829Z,99.33
2017-01-31T02:47:18.565Z,99.28
2017-01-31T02:48:25.856Z,99.14
2017-01-31T02:48:47.563Z,99.12
2017-01-31T02:49:50.079Z,99.03
2017-01-31T02:50:11.792Z,98.88
2017-01-31T02:50:43.060Z,98.78
2017-01-31T02:51:04.761Z,98.82
2017-01-31T02:51:36.020Z,98.79
2017-01-31T02:51:57.730Z,98.76
2017-01-31T02:52:28.994Z,98.77
2017-01-31T02:52:50.719Z,98.74
2017-01-31T02:53:17.212Z,98.68
2017-01-31T02:53:38.936Z,98.64
2017-01-31T02:54:10.174Z,98.59
2017-01-31T02:54:31.872Z,98.58
2017-01-31T02:54:58.356Z,98.60
2017-01-31T02:55:20.065Z,98.61
2017-01-31T02:56:32.119Z,98.54
2017-01-31T02:56:53.816Z,98.53
2017-01-31T02:57:20.292Z,98.45
2017-01-31T02:57:41.993Z,98.24
2017-01-31T02:58:13.254Z,98.22
2017-01-31T02:58:34.961Z,98.13
2017-01-31T02:59:06.213Z,98.13
2017-01-31T02:59:27.923Z,98.09
2017-01-31T02:59:49.633Z,97.95
2017-01-31T03:00:52.726Z,98.14
2017-01-31T03:01:14.434Z,98.00
2017-01-31T03:01:40.921Z,98.01
2017-01-31T03:02:07.400Z,98.01
2017-01-31T03:03:10.537Z,98.04
2017-01-31T03:03:32.255Z,98.07
2017-01-31T03:03:53.964Z,98.00
2017-01-31T03:04:20.453Z,97.99
2017-01-31T03:04:42.174Z,97.93
2017-01-31T03:05:03.894Z,98.00
2017-01-31T03:05:30.435Z,97.88
2017-01-31T03:05:52.140Z,97.78
2017-01-31T03:06:18.627Z,97.77
2017-01-31T03:06:40.335Z,97.75
2017-01-31T03:07:06.836Z,97.83
2017-01-31T03:07:28.549Z,97.92
2017-01-31T03:07:59.828Z,98.05
2017-01-31T03:08:21.581Z,97.95
2017-01-31T03:08:48.088Z,97.97
2017-01-31T03:09:09.841Z,97.82
2017-01-31T03:09:31.545Z,97.67
2017-01-31T03:10:02.801Z,97.71
2017-01-31T03:10:24.505Z,97.74
2017-01-31T03:10:55.857Z,97.83
2017-01-31T03:11:17.625Z,97.70
2017-01-31T03:12:29.684Z,97.49
2017-01-31T03:12:51.390Z,97.63
2017-01-31T03:13:58.686Z,97.33
2017-01-31T03:14:20.418Z,97.23
2017-01-31T03:15:27.693Z,97.33
2017-01-31T03:15:49.419Z,97.41
2017-01-31T03:16:20.672Z,97.47
2017-01-31T03:16:42.372Z,97.40
2017-01-31T03:17:45.440Z,97.39
2017-01-31T03:18:07.141Z,97.44
2017-01-31T03:18:28.851Z,97.54
2017-01-31T03:18:50.550Z,97.53
2017-01-31T03:19:12.246Z,97.45
2017-01-31T03:19:33.955Z,97.36
2017-01-31T03:19:55.672Z,97.45
2017-01-31T03:20:17.381Z,97.53
2017-01-31T03:20:39.091Z,97.47
2017-01-31T03:21:51.152Z,97.47
2017-01-31T03:22:12.890Z,97.37
2017-01-31T03:22:39.371Z,97.27
2017-01-31T03:23:01.085Z,97.25
2017-01-31T03:23:32.345Z,97.06
2017-01-31T03:23:54.047Z,97.08
2017-01-31T03:24:25.305Z,97.04
2017-01-31T03:24:47.036Z,97.01
2017-01-31T03:25:18.299Z,97.11
2017-01-31T03:25:40.015Z,97.15
2017-01-31T03:26:11.274Z,97.16
2017-01-31T03:26:32.989Z,97.05
2017-01-31T03:27:36.095Z,96.90
2017-01-31T03:27:57.816Z,97.05
2017-01-31T03:29:00.342Z,97.03
2017-01-31T03:29:26.810Z,97.03
2017-01-31T03:29:53.290Z,97.05
2017-01-31T03:30:14.982Z,97.13
2017-01-31T03:31:22.287Z,97.07
2017-01-31T03:31:44.086Z,96.98
2017-01-31T03:32:10.569Z,96.98
2017-01-31T03:32:32.278Z,96.91
2017-01-31T03:32:58.758Z,96.52
2017-01-31T03:33:20.457Z,96.50
2017-01-31T03:33:46.938Z,96.87
2017-01-31T03:34:08.633Z,96.88
2017-01-31T03:34:30.340Z,96.84
2017-01-31T03:34:56.828Z,96.84
2017-01-31T03:35:18.528Z,96.96
2017-01-31T03:35:40.229Z,97.05
2017-01-31T03:36:06.720Z,97.03
2017-01-31T03:36:28.421Z,96.91
2017-01-31T03:36:54.903Z,97.06
2017-01-31T03:37:16.594Z,97.26
2017-01-31T03:37:38.292Z,97.08
2017-01-31T03:38:00.089Z,96.95
2017-01-31T03:38:21.787Z,96.70
2017-01-31T03:38:43.494Z,96.85
2017-01-31T03:39:05.203Z,96.72
2017-01-31T03:39:26.994Z,96.73
2017-01-31T03:39:48.694Z,96.67
2017-01-31T03:40:10.439Z,96.50
2017-01-31T03:40:32.140Z,96.28
2017-01-31T03:41:03.494Z,96.06
2017-01-31T03:41:25.192Z,96.26
2017-01-31T03:42:32.487Z,96.60
2017-01-31T03:42:54.320Z,96.64
2017-01-31T03:43:57.494Z,96.64
2017-01-31T03:44:19.212Z,96.47
2017-01-31T03:45:26.515Z,96.62
2017-01-31T03:45:48.325Z,96.51
2017-01-31T03:46:14.815Z,96.48
2017-01-31T03:46:36.518Z,96.29
2017-01-31T03:47:07.781Z,96.21
2017-01-31T03:47:29.484Z,96.50
2017-01-31T03:47:55.962Z,96.58
2017-01-31T03:48:17.680Z,96.50
2017-01-31T03:49:20.752Z,96.24
2017-01-31T03:49:42.560Z,96.28
2017-01-31T03:50:04.286Z,96.31
2017-01-31T03:50:30.783Z,96.33
2017-01-31T03:50:52.566Z,96.35
2017-01-31T03:51:14.265Z,96.08
2017-01-31T03:51:40.748Z,96.23
2017-01-31T03:52:02.550Z,96.00
2017-01-31T03:52:29.027Z,96.12
2017-01-31T03:52:50.725Z,96.25
2017-01-31T03:53:17.194Z,95.95
2017-01-31T03:53:38.930Z,95.74
2017-01-31T03:54:05.406Z,96.04
2017-01-31T03:54:27.120Z,95.91
2017-01-31T03:54:48.920Z,95.59
2017-01-31T03:55:10.623Z,95.65
2017-01-31T03:55:32.372Z,95.60
2017-01-31T03:55:58.858Z,95.71
2017-01-31T03:56:20.641Z,95.69
2017-01-31T03:56:42.342Z,95.72
2017-01-31T03:57:04.043Z,95.58
2017-01-31T03:57:30.611Z,95.45
2017-01-31T03:57:52.306Z,95.53
2017-01-31T03:58:23.561Z,95.89
2017-01-31T03:58:45.363Z,95.87
2017-01-31T03:59:07.070Z,95.89
2017-01-31T03:59:28.775Z,95.98
2017-01-31T03:59:50.511Z,96.13
2017-01-31T04:00:12.213Z,96.01
2017-01-31T04:00:33.935Z,95.72
2017-01-31T04:00:55.632Z,95.76
2017-01-31T04:01:17.357Z,95.53
2017-01-31T04:01:43.856Z,95.60
2017-01-31T04:02:05.550Z,95.94
2017-01-31T04:02:27.297Z,95.94
2017-01-31T04:02:49.006Z,95.82
2017-01-31T04:03:10.794Z,96.00
2017-01-31T04:04:13.879Z,95.24
2017-01-31T04:04:35.585Z,95.49
2017-01-31T04:04:57.284Z,95.39
2017-01-31T04:05:19.026Z,95.31
2017-01-31T04:05:40.708Z,95.53
2017-01-31T04:06:47.994Z,94.88
2017-01-31T04:07:09.696Z,94.92
2017-01-31T04:08:12.758Z,95.32
2017-01-31T04:08:34.467Z,95.27
2017-01-31T04:08:56.177Z,95.38
2017-01-31T04:09:22.659Z,94.94
2017-01-31T04:09:44.476Z,95.14
2017-01-31T04:10:06.184Z,94.87
2017-01-31T04:10:32.669Z,95.08
2017-01-31T04:10:54.376Z,94.93
2017-01-31T04:12:01.740Z,94.98
2017-01-31T04:12:23.452Z,95.08
2017-01-31T04:12:49.942Z,94.76
2017-01-31T04:13:11.731Z,94.78
2017-01-31T04:13:33.444Z,95.01
2017-01-31T04:13:59.932Z,94.56
2017-01-31T04:14:21.649Z,94.36
2017-01-31T04:14:43.441Z,94.37
2017-01-31T04:15:05.156Z,94.17
2017-01-31T04:15:26.860Z,94.27
2017-01-31T04:15:48.552Z,94.59
2017-01-31T04:16:10.340Z,94.68
2017-01-31T04:16:32.051Z,94.72
2017-01-31T04:16:58.573Z,94.23
2017-01-31T04:17:20.368Z,94.27
2017-01-31T04:18:22.890Z,94.94
2017-01-31T04:18:44.596Z,94.59
2017-01-31T04:19:47.650Z,94.62
2017-01-31T04:20:09.363Z,94.24
2017-01-31T04:20:31.088Z,94.37
2017-01-31T04:20:52.795Z,94.43
2017-01-31T04:21:55.399Z,93.91
2017-01-31T04:22:17.126Z,94.18
2017-01-31T04:22:38.835Z,94.09
2017-01-31T04:23:00.548Z,94.27
2017-01-31T04:23:22.363Z,94.19
2017-01-31T04:23:44.076Z,93.68
2017-01-31T04:24:10.563Z,93.77
2017-01-31T04:24:32.374Z,93.87
2017-01-31T04:24:58.857Z,94.27
2017-01-31T04:25:20.566Z,94.34
2017-01-31T04:25:51.819Z,94.37
2017-01-31T04:26:13.650Z,94.35
2017-01-31T04:26:44.916Z,93.65
2017-01-31T04:27:06.707Z,94.06
2017-01-31T04:27:28.445Z,94.36
2017-01-31T04:27:50.157Z,94.58
2017-01-31T04:28:11.882Z,94.38
2017-01-31T04:28:33.595Z,94.31
2017-01-31T04:28:55.389Z,94.29
2017-01-31T04:29:17.107Z,94.23
2017-01-31T04:29:48.366Z,94.17
2017-01-31T04:30:10.062Z,94.17
2017-01-31T04:30:36.560Z,94.27
2017-01-31T04:30:58.288Z,94.35
2017-01-31T04:31:20.104Z,94.04
2017-01-31T04:31:46.606Z,93.90
2017-01-31T04:32:08.307Z,93.15
2017-01-31T04:32:34.784Z,93.64
2017-01-31T04:32:56.682Z,94.02
2017-01-31T04:33:23.179Z,93.41
2017-01-31T04:33:44.970Z,93.75
2017-01-31T04:34:11.542Z,93.89
2017-01-31T04:34:33.245Z,93.75
2017-01-31T04:34:59.710Z,93.72
2017-01-31T04:35:21.427Z,93.69
2017-01-31T04:35:47.911Z,93.11
2017-01-31T04:36:51.191Z,93.58
2017-01-31T04:37:12.884Z,93.51
2017-01-31T04:37:44.157Z,93.51
2017-01-31T04:38:05.866Z,93.56
2017-01-31T04:38:32.346Z,93.36
2017-01-31T04:38:54.128Z,93.57
2017-01-31T04:39:20.621Z,93.05
2017-01-31T04:39:42.335Z,93.16
2017-01-31T04:40:08.823Z,93.13
2017-01-31T04:40:30.515Z,93.35
2017-01-31T04:40:56.990Z,93.26
2017-01-31T04:41:18.694Z,93.53
2017-01-31T04:41:40.404Z,93.47
2017-01-31T04:42:02.204Z,93.44
2017-01-31T04:42:23.899Z,92.65
2017-01-31T04:42:45.594Z,92.85
2017-01-31T04:43:52.881Z,93.27
2017-01-31T04:44:14.581Z,93.37
2017-01-31T04:44:36.302Z,93.49
2017-01-31T04:45:07.556Z,93.23
2017-01-31T04:45:29.264Z,93.61
2017-01-31T04:45:53.778Z,93.09
2017-01-31T04:46:15.498Z,93.46
2017-01-31T04:47:22.786Z,92.85
2017-01-31T04:47:44.475Z,93.16
2017-01-31T04:48:10.959Z,93.16
2017-01-31T04:48:32.655Z,93.58
2017-01-31T04:48:54.354Z,93.70
2017-01-31T04:49:20.829Z,93.43
2017-01-31T04:49:42.571Z,93.48
2017-01-31T04:50:13.832Z,93.65
2017-01-31T04:50:35.560Z,93.78
2017-01-31T04:50:57.231Z,93.65
2017-01-31T04:51:20.961Z,93.03
2017-01-31T04:51:42.667Z,92.79
2017-01-31T04:52:04.372Z,92.89
2017-01-31T04:52:30.896Z,92.84
2017-01-31T04:52:52.610Z,93.64
2017-01-31T04:53:19.085Z,93.38
2017-01-31T04:53:40.782Z,93.26
2017-01-31T04:54:02.495Z,93.56
2017-01-31T04:54:28.977Z,93.29
2017-01-31T04:54:50.714Z,93.43
2017-01-31T04:55:12.430Z,93.51
2017-01-31T04:55:43.681Z,93.40
2017-01-31T04:56:05.388Z,93.64
2017-01-31T04:56:27.123Z,93.80
2017-01-31T04:56:58.372Z,93.84
2017-01-31T04:57:20.085Z,93.65
2017-01-31T04:58:32.145Z,93.30
2017-01-31T04:58:53.851Z,93.47
2017-01-31T04:59:15.546Z,93.28
2017-01-31T04:59:46.807Z,93.48
2017-01-31T05:00:08.524Z,93.39
2017-01-31T05:00:30.237Z,93.46
2017-01-31T05:01:01.483Z,93.68
2017-01-31T05:01:23.194Z,93.58
2017-01-31T05:01:54.453Z,93.36
2017-01-31T05:02:16.184Z,93.42
2017-01-31T05:02:47.435Z,93.42
2017-01-31T05:03:09.136Z,93.66
2017-01-31T05:03:40.392Z,93.12
2017-01-31T05:04:02.103Z,93.34
2017-01-31T05:04:23.798Z,93.13
2017-01-31T05:04:50.291Z,92.92
2017-01-31T05:05:11.996Z,93.06
2017-01-31T05:05:38.482Z,93.10
2017-01-31T05:06:00.219Z,93.30
2017-01-31T05:06:58.561Z,93.59
2017-01-31T05:07:20.289Z,93.63
2017-01-31T05:07:42.008Z,93.53
2017-01-31T05:08:08.487Z,93.37
2017-01-31T05:08:30.204Z,93.72
2017-01-31T05:08:56.692Z,93.12
2017-01-31T05:09:18.450Z,93.21
2017-01-31T05:09:40.173Z,93.61
2017-01-31T05:10:52.266Z,93.74
2017-01-31T05:11:14.001Z,93.64
2017-01-31T05:11:40.487Z,93.10
2017-01-31T05:12:02.243Z,93.23
2017-01-31T05:13:14.299Z,92.71
2017-01-31T05:13:36.011Z,92.64
2017-01-31T05:13:57.729Z,92.83
2017-01-31T05:14:28.985Z,92.93
2017-01-31T05:14:50.678Z,93.21
2017-01-31T05:15:22.021Z,92.68
2017-01-31T05:15:43.713Z,92.77
2017-01-31T05:16:42.014Z,93.53
2017-01-31T05:17:03.738Z,93.17
2017-01-31T05:17:30.218Z,93.23
2017-01-31T05:17:51.912Z,93.09
2017-01-31T05:18:13.627Z,92.98
2017-01-31T05:18:40.117Z,92.84
2017-01-31T05:19:01.818Z,93.12
2017-01-31T05:19:23.529Z,93.12
2017-01-31T05:19:50.013Z,93.08
2017-01-31T05:20:11.710Z,92.81
2017-01-31T05:20:33.431Z,92.79
2017-01-31T05:20:59.908Z,92.79
2017-01-31T05:21:52.874Z,93.07
2017-01-31T05:22:17.546Z,92.71
2017-01-31T05:22:39.271Z,92.43
2017-01-31T05:23:41.789Z,92.75
2017-01-31T05:24:03.485Z,92.53
2017-01-31T05:25:06.568Z,93.18
2017-01-31T05:25:28.263Z,92.98
2017-01-31T05:25:49.976Z,92.72
2017-01-31T05:26:16.458Z,93.26
2017-01-31T05:26:38.168Z,93.13
2017-01-31T05:27:09.441Z,92.55
2017-01-31T05:27:31.150Z,92.90
2017-01-31T05:27:57.630Z,92.73
2017-01-31T05:28:19.332Z,93.04
2017-01-31T05:28:41.047Z,93.20
2017-01-31T05:29:12.299Z,93.22
2017-01-31T05:29:34.011Z,93.17
2017-01-31T05:29:55.732Z,92.87
2017-01-31T05:30:17.473Z,92.88
2017-01-31T05:30:39.203Z,92.56
2017-01-31T05:31:05.690Z,92.22
2017-01-31T05:31:27.422Z,92.29
2017-01-31T05:31:49.127Z,92.32
2017-01-31T05:32:20.390Z,91.21
2017-01-31T05:32:42.114Z,91.03
2017-01-31T05:33:03.863Z,90.98
2017-01-31T05:33:30.358Z,90.99
2017-01-31T05:34:33.444Z,91.45
2017-01-31T05:35:41.648Z,90.90
2017-01-31T05:36:03.370Z,91.86
2017-01-31T05:36:29.854Z,91.37
2017-01-31T05:36:51.557Z,90.78
2017-01-31T05:37:18.027Z,89.82
2017-01-31T05:37:39.739Z,89.08
2017-01-31T05:38:06.210Z,90.46
2017-01-31T05:38:27.914Z,89.97
2017-01-31T05:38:49.672Z,90.44